Terminal Aerodrome Forecast
Issued by NWS Austin/San Antonio, TX

Home | Current Version | Previous Version | Text Only | Print | Product List | Glossary On
Versions: 1 2 3 4 5 6 7 8 9 10 11 12 13 14 15 16 17 18 19 20 21 22 23 24
000
FTUS44 KEWX 180520
TAFSAT
TAF
KSAT 180520Z 1806/1912 07004KT P6SM SCT010
     FM180700 04004KT P6SM BKN012
     FM180900 VRB03KT 5SM BR BKN007 OVC012
     FM181600 18005KT P6SM VCSH BKN030
     FM181800 18007KT P6SM VCTS SCT030CB BKN150
     FM182300 19005KT P6SM SCT030
     FM190600 19003KT P6SM BKN025=

USA.gov is the U.S. government's official web portal to all federal, state and local government web resources and services.